createdAt,value
2019-01-12T00:01:50.815Z,0.60
2019-01-12T00:04:22.116Z,0.60
2019-01-12T00:06:53.516Z,0.70
2019-01-12T00:09:24.443Z,0.70
2019-01-12T00:11:55.695Z,0.70
2019-01-12T00:14:26.880Z,0.70
2019-01-12T00:17:00.392Z,0.70
2019-01-12T00:19:32.069Z,0.70
2019-01-12T00:22:04.398Z,0.70
2019-01-12T00:24:35.462Z,0.70
2019-01-12T00:27:07.248Z,0.70
2019-01-12T00:29:38.155Z,0.70
2019-01-12T00:32:09.228Z,0.70
2019-01-12T00:34:40.564Z,0.70
2019-01-12T00:37:10.984Z,0.70
2019-01-12T00:39:42.528Z,0.70
2019-01-12T00:42:13.784Z,0.70
2019-01-12T00:44:44.968Z,0.80
2019-01-12T00:47:16.289Z,0.80
2019-01-12T00:49:48.204Z,0.80
2019-01-12T00:52:19.682Z,0.80
2019-01-12T00:54:51.948Z,0.80
2019-01-12T00:57:23.039Z,0.80
2019-01-12T00:59:53.855Z,0.80
2019-01-12T01:02:24.800Z,0.80
2019-01-12T01:04:56.040Z,0.80
2019-01-12T01:07:27.465Z,0.80
2019-01-12T01:09:58.305Z,0.80
2019-01-12T01:12:29.981Z,0.80
2019-01-12T01:15:01.300Z,0.80
2019-01-12T01:17:32.539Z,0.80
2019-01-12T01:20:04.095Z,0.80
2019-01-12T01:22:35.468Z,0.80
2019-01-12T01:25:07.412Z,0.80
2019-01-12T01:27:39.066Z,0.80
2019-01-12T01:30:16.609Z,0.80
2019-01-12T01:32:48.797Z,0.80
2019-01-12T01:35:19.758Z,0.80
2019-01-12T01:37:52.367Z,0.80
2019-01-12T01:40:23.433Z,0.80
2019-01-12T01:42:54.207Z,0.80
2019-01-12T01:45:24.432Z,0.80
2019-01-12T01:47:54.846Z,0.80
2019-01-12T01:50:25.699Z,0.80
2019-01-12T01:52:56.254Z,0.90
2019-01-12T01:55:26.684Z,0.90
2019-01-12T01:57:57.703Z,0.90
2019-01-12T02:00:28.328Z,0.90
2019-01-12T02:02:58.855Z,0.90
2019-01-12T02:05:29.225Z,0.90
2019-01-12T02:07:59.743Z,0.90
2019-01-12T02:10:30.196Z,0.90
2019-01-12T02:13:01.238Z,1.00
2019-01-12T02:15:31.565Z,1.00
2019-01-12T02:18:01.795Z,1.00
2019-01-12T02:20:32.377Z,1.00
2019-01-12T02:23:02.858Z,1.00
2019-01-12T02:25:33.624Z,1.00
2019-01-12T02:28:04.606Z,1.00
2019-01-12T02:30:36.101Z,1.00
2019-01-12T02:33:07.017Z,1.00
2019-01-12T02:35:38.474Z,1.00
2019-01-12T02:38:09.369Z,1.00
2019-01-12T02:40:41.261Z,1.10
2019-01-12T02:43:12.772Z,1.10
2019-01-12T02:45:43.688Z,1.10
2019-01-12T02:48:14.711Z,1.00
2019-01-12T02:50:46.173Z,1.00
2019-01-12T02:53:16.986Z,1.00
2019-01-12T02:55:48.645Z,1.00
2019-01-12T02:58:22.030Z,1.10
2019-01-12T03:00:53.086Z,1.00
2019-01-12T03:03:24.015Z,1.00
2019-01-12T03:05:55.735Z,1.00
2019-01-12T03:08:26.576Z,1.00
2019-01-12T03:10:58.459Z,1.10
2019-01-12T03:13:29.239Z,1.10
2019-01-12T03:16:00.937Z,1.10
2019-01-12T03:18:32.137Z,1.20
2019-01-12T03:21:03.824Z,1.20
2019-01-12T03:23:35.341Z,1.20
2019-01-12T03:26:06.348Z,1.10
2019-01-12T03:28:37.249Z,1.10
2019-01-12T03:31:08.097Z,1.00
2019-01-12T03:33:39.080Z,1.00
2019-01-12T03:36:10.085Z,0.90
2019-01-12T03:38:41.418Z,0.90
2019-01-12T03:41:12.469Z,0.90
2019-01-12T03:43:43.387Z,0.80
2019-01-12T03:46:14.520Z,0.80
2019-01-12T03:48:46.105Z,0.80
2019-01-12T03:51:17.513Z,0.80
2019-01-12T03:53:48.893Z,0.80
2019-01-12T03:56:19.963Z,0.70
2019-01-12T03:58:50.716Z,0.70
2019-01-12T04:01:21.718Z,0.60
2019-01-12T04:03:53.210Z,0.60
2019-01-12T04:06:25.336Z,0.50
2019-01-12T04:08:56.450Z,0.50
2019-01-12T04:11:27.633Z,0.50
2019-01-12T04:13:58.440Z,0.40
2019-01-12T04:16:29.854Z,0.40
2019-01-12T04:19:00.622Z,0.40
2019-01-12T04:21:32.057Z,0.40
2019-01-12T04:24:03.226Z,0.30
2019-01-12T04:26:34.406Z,0.30
2019-01-12T04:29:05.679Z,0.30
2019-01-12T04:31:37.321Z,0.30
2019-01-12T04:34:08.542Z,0.30
2019-01-12T04:36:39.687Z,0.40
2019-01-12T04:39:10.359Z,0.40
2019-01-12T04:41:41.927Z,0.50
2019-01-12T04:44:12.897Z,0.50
2019-01-12T04:46:44.226Z,0.60
2019-01-12T04:49:14.994Z,0.60
2019-01-12T04:51:46.392Z,0.60
2019-01-12T04:54:17.994Z,0.60
2019-01-12T04:56:48.798Z,0.70
2019-01-12T04:59:19.954Z,0.70
2019-01-12T05:01:51.052Z,0.70
2019-01-12T05:04:22.742Z,0.70
2019-01-12T05:06:53.348Z,0.80
2019-01-12T05:09:24.406Z,0.80
2019-01-12T05:11:56.171Z,0.90
2019-01-12T05:14:26.804Z,0.90
2019-01-12T05:16:59.777Z,0.90
2019-01-12T05:19:30.733Z,0.90
2019-01-12T05:22:01.158Z,0.90
2019-01-12T05:24:31.724Z,1.00
2019-01-12T05:27:02.418Z,1.00
2019-01-12T05:29:32.746Z,1.00
2019-01-12T05:32:03.347Z,1.00
2019-01-12T05:34:33.728Z,0.90
2019-01-12T05:37:04.430Z,0.90
2019-01-12T05:39:35.157Z,0.90
2019-01-12T05:42:05.896Z,0.90
2019-01-12T05:44:36.191Z,0.90
2019-01-12T05:47:07.639Z,0.90
2019-01-12T05:49:40.784Z,0.90
2019-01-12T05:52:11.267Z,0.90
2019-01-12T05:54:41.789Z,0.90
2019-01-12T05:57:12.223Z,0.90
2019-01-12T05:59:43.288Z,0.90
2019-01-12T06:02:14.177Z,0.80
2019-01-12T06:04:46.370Z,0.80
2019-01-12T06:07:17.689Z,0.80
2019-01-12T06:09:48.113Z,0.80
2019-01-12T06:12:18.433Z,0.70
2019-01-12T06:14:48.825Z,0.70
2019-01-12T06:17:20.165Z,0.70
2019-01-12T06:19:51.055Z,0.70
2019-01-12T06:22:21.439Z,0.70
2019-01-12T06:24:52.093Z,0.70
2019-01-12T06:27:22.849Z,0.70
2019-01-12T06:29:53.315Z,0.70
2019-01-12T06:32:23.610Z,0.70
2019-01-12T06:34:54.575Z,0.70
2019-01-12T06:37:25.042Z,0.70
2019-01-12T06:39:55.616Z,0.70
2019-01-12T06:42:26.146Z,0.70
2019-01-12T06:44:56.977Z,0.70
2019-01-12T06:47:28.480Z,0.70
2019-01-12T06:49:59.221Z,0.70
2019-01-12T06:52:32.185Z,0.70
2019-01-12T06:55:03.859Z,0.70
2019-01-12T06:57:35.148Z,0.70
2019-01-12T07:00:10.374Z,0.70
2019-01-12T07:02:42.458Z,0.70
2019-01-12T07:05:13.171Z,0.70
2019-01-12T07:07:46.750Z,0.70
2019-01-12T07:10:18.620Z,0.70
2019-01-12T07:12:50.661Z,0.70
2019-01-12T07:15:21.609Z,0.70
2019-01-12T07:17:52.099Z,0.70
2019-01-12T07:20:22.662Z,0.80
2019-01-12T07:22:53.279Z,0.80
2019-01-12T07:25:24.289Z,0.80
2019-01-12T07:27:58.931Z,0.90
2019-01-12T07:30:30.276Z,0.90
2019-01-12T07:33:01.172Z,0.90
2019-01-12T07:35:33.834Z,0.90
2019-01-12T07:38:05.655Z,0.90
2019-01-12T07:40:36.622Z,0.90
2019-01-12T07:43:07.970Z,1.00
2019-01-12T07:45:38.893Z,1.00
2019-01-12T07:48:09.304Z,1.10
2019-01-12T07:50:40.643Z,1.00
2019-01-12T07:53:11.958Z,1.00
2019-01-12T07:55:43.941Z,1.10
2019-01-12T07:58:15.277Z,1.20
2019-01-12T08:00:46.232Z,1.20
2019-01-12T08:03:17.746Z,1.10
2019-01-12T08:05:49.395Z,1.20
2019-01-12T08:08:21.140Z,1.20
2019-01-12T08:10:52.464Z,1.20
2019-01-12T08:13:23.911Z,1.20
2019-01-12T08:15:54.864Z,1.20
2019-01-12T08:18:25.800Z,1.30
2019-01-12T08:20:57.520Z,1.30
2019-01-12T08:23:28.525Z,1.30
2019-01-12T08:25:59.449Z,1.40
2019-01-12T08:28:29.967Z,1.40
2019-01-12T08:31:00.203Z,1.50
2019-01-12T08:33:31.266Z,1.50
2019-01-12T08:36:02.825Z,1.50
2019-01-12T08:38:34.026Z,1.50
2019-01-12T08:41:05.105Z,1.50
2019-01-12T08:43:35.946Z,1.50
2019-01-12T08:46:06.629Z,1.60
2019-01-12T08:48:37.745Z,1.60
2019-01-12T08:51:10.300Z,1.50
2019-01-12T08:53:41.220Z,1.50
2019-01-12T08:56:12.100Z,1.50
2019-01-12T08:58:43.380Z,1.50
2019-01-12T09:01:14.980Z,1.50
2019-01-12T09:03:46.576Z,1.40
2019-01-12T09:06:17.697Z,1.40
2019-01-12T09:08:49.376Z,1.50
2019-01-12T09:11:20.576Z,1.50
2019-01-12T09:13:51.977Z,1.50
2019-01-12T09:16:22.857Z,1.60
2019-01-12T09:18:54.257Z,1.60
2019-01-12T09:21:26.817Z,1.60
2019-01-12T09:23:59.416Z,1.60
2019-01-12T09:26:30.360Z,1.60
2019-01-12T09:29:01.556Z,1.60
2019-01-12T09:31:32.511Z,1.70
2019-01-12T09:34:03.594Z,1.60
2019-01-12T09:36:34.512Z,1.60
2019-01-12T09:39:08.753Z,1.60
2019-01-12T09:41:39.632Z,1.70
2019-01-12T09:46:43.644Z,1.70
2019-01-12T09:49:15.125Z,1.70
2019-01-12T09:51:46.087Z,1.80
2019-01-12T09:54:17.331Z,1.80
2019-01-12T09:56:51.931Z,1.80
2019-01-12T09:59:20.965Z,1.80
2019-01-12T10:01:51.976Z,1.70
2019-01-12T10:04:24.659Z,1.70
2019-01-12T10:06:55.541Z,1.80
2019-01-12T10:09:26.710Z,1.70
2019-01-12T10:11:57.827Z,1.70
2019-01-12T10:14:29.025Z,1.70
2019-01-12T10:16:59.804Z,1.70
2019-01-12T10:19:31.304Z,1.60
2019-01-12T10:22:02.643Z,1.70
2019-01-12T10:24:33.563Z,1.70
2019-01-12T10:27:04.443Z,1.70
2019-01-12T10:29:35.232Z,1.80
2019-01-12T10:32:06.884Z,1.90
2019-01-12T10:34:38.123Z,2.00
2019-01-12T10:37:09.044Z,2.00
2019-01-12T10:39:40.378Z,2.10
2019-01-12T10:42:11.310Z,2.10
2019-01-12T10:44:42.551Z,2.10
2019-01-12T10:47:13.654Z,2.20
2019-01-12T10:49:44.572Z,2.20
2019-01-12T10:52:16.142Z,2.20
2019-01-12T10:54:47.713Z,2.30
2019-01-12T10:57:18.920Z,2.30
2019-01-12T10:59:49.740Z,2.40
2019-01-12T11:02:24.918Z,2.50
2019-01-12T11:04:56.537Z,2.50
2019-01-12T11:07:28.112Z,2.50
2019-01-12T11:10:04.103Z,2.50
2019-01-12T11:12:33.251Z,2.40
2019-01-12T11:15:05.098Z,2.40
2019-01-12T11:17:36.481Z,2.50
2019-01-12T11:20:08.306Z,2.50
2019-01-12T11:22:39.822Z,2.50
2019-01-12T11:25:12.723Z,2.50
2019-01-12T11:27:44.568Z,2.50
2019-01-12T11:30:19.402Z,2.50
2019-01-12T11:32:50.792Z,2.60
2019-01-12T11:35:23.126Z,2.60
2019-01-12T11:37:54.520Z,2.60
2019-01-12T11:40:25.481Z,2.50
2019-01-12T11:42:57.098Z,2.50
2019-01-12T11:45:29.122Z,2.50
2019-01-12T11:48:00.096Z,2.60
2019-01-12T11:50:31.402Z,2.60
2019-01-12T11:53:02.516Z,2.50
2019-01-12T11:55:33.668Z,2.50
2019-01-12T11:58:05.079Z,2.50
2019-01-12T12:00:36.768Z,2.50
2019-01-12T12:03:08.120Z,2.50
2019-01-12T12:05:40.484Z,2.50
2019-01-12T12:08:11.816Z,2.50
2019-01-12T12:10:43.456Z,2.50
2019-01-12T12:13:14.729Z,2.50
2019-01-12T12:15:46.185Z,2.50
2019-01-12T12:18:17.720Z,2.40
2019-01-12T12:20:49.358Z,2.40
2019-01-12T12:23:20.536Z,2.40
2019-01-12T12:25:51.733Z,2.40
2019-01-12T12:28:23.057Z,2.40
2019-01-12T12:30:54.205Z,2.40
2019-01-12T12:33:25.104Z,2.40
2019-01-12T12:35:58.452Z,2.40
2019-01-12T12:38:29.618Z,2.30
2019-01-12T12:41:00.730Z,2.30
2019-01-12T12:43:32.354Z,2.30
2019-01-12T12:46:03.826Z,2.20
2019-01-12T12:48:35.327Z,2.20
2019-01-12T12:51:06.488Z,2.20
2019-01-12T12:53:37.398Z,2.20
2019-01-12T12:56:09.081Z,2.20
2019-01-12T12:58:39.843Z,2.10
2019-01-12T13:01:11.084Z,2.10
2019-01-12T13:03:42.266Z,2.10
2019-01-12T13:06:14.094Z,2.00
2019-01-12T13:08:48.506Z,2.10
2019-01-12T13:11:18.124Z,2.10
2019-01-12T13:13:48.945Z,2.10
2019-01-12T13:16:20.494Z,2.10
2019-01-12T13:18:51.586Z,2.10
2019-01-12T13:21:22.695Z,2.10
2019-01-12T13:23:53.507Z,2.10
2019-01-12T13:26:24.324Z,2.10
2019-01-12T13:28:55.497Z,2.10
2019-01-12T13:31:27.653Z,2.10
2019-01-12T13:33:58.510Z,2.10
2019-01-12T13:36:28.963Z,2.10
2019-01-12T13:38:59.932Z,2.00
2019-01-12T13:41:31.436Z,2.00
2019-01-12T13:44:02.293Z,2.00
2019-01-12T13:46:34.097Z,2.00
2019-01-12T13:49:04.923Z,2.00
2019-01-12T13:51:36.143Z,2.00
2019-01-12T13:54:07.358Z,2.00
2019-01-12T13:56:38.355Z,2.00
2019-01-12T13:59:09.307Z,2.00
2019-01-12T14:01:40.696Z,2.00
2019-01-12T14:04:12.053Z,2.00
2019-01-12T14:06:43.297Z,2.00
2019-01-12T14:09:13.810Z,2.00
2019-01-12T14:11:45.262Z,2.10
2019-01-12T14:14:16.532Z,2.00
2019-01-12T14:16:47.452Z,2.10
2019-01-12T14:19:18.194Z,2.00
2019-01-12T14:21:49.687Z,2.00
2019-01-12T14:24:20.968Z,2.00
2019-01-12T14:26:51.957Z,2.00
2019-01-12T14:29:23.501Z,2.00
2019-01-12T14:31:54.431Z,1.90
2019-01-12T14:34:24.943Z,2.00
2019-01-12T14:36:56.446Z,1.90
2019-01-12T14:39:27.495Z,1.90
2019-01-12T14:41:58.973Z,1.90
2019-01-12T14:44:30.442Z,1.90
2019-01-12T14:47:01.836Z,1.90
2019-01-12T14:49:32.668Z,1.90
2019-01-12T14:52:04.386Z,1.90
2019-01-12T14:54:35.778Z,1.90
2019-01-12T14:57:07.436Z,1.90
2019-01-12T14:59:38.043Z,1.90
2019-01-12T15:02:09.767Z,1.90
2019-01-12T15:04:40.807Z,1.90
2019-01-12T15:07:11.421Z,1.90
2019-01-12T15:09:42.383Z,1.90
2019-01-12T15:12:13.076Z,1.90
2019-01-12T15:14:43.478Z,1.90
2019-01-12T15:17:15.192Z,1.90
2019-01-12T15:19:45.934Z,1.90
2019-01-12T15:22:16.804Z,1.90
2019-01-12T15:24:47.244Z,1.90
2019-01-12T15:27:18.319Z,1.90
2019-01-12T15:29:49.447Z,1.90
2019-01-12T15:32:21.347Z,1.90
2019-01-12T15:34:52.338Z,1.90
2019-01-12T15:37:23.191Z,1.90
2019-01-12T15:39:53.670Z,1.90
2019-01-12T15:42:24.755Z,1.90
2019-01-12T15:44:55.404Z,1.90
2019-01-12T15:47:26.410Z,1.90
2019-01-12T15:49:56.767Z,1.90
2019-01-12T15:52:27.363Z,1.90
2019-01-12T15:54:58.493Z,1.90
2019-01-12T15:57:29.367Z,1.90
2019-01-12T16:00:00.096Z,1.90
2019-01-12T16:02:30.803Z,1.90
2019-01-12T16:05:01.421Z,1.90
2019-01-12T16:07:31.978Z,1.90
2019-01-12T16:10:02.414Z,1.90
2019-01-12T16:12:33.114Z,1.90
2019-01-12T16:15:04.595Z,1.90
2019-01-12T16:17:35.847Z,1.90
2019-01-12T16:20:10.766Z,1.90
2019-01-12T16:22:41.780Z,1.90
2019-01-12T16:25:13.774Z,1.90
2019-01-12T16:27:44.660Z,1.90
2019-01-12T16:30:17.796Z,1.90
2019-01-12T16:32:49.547Z,1.90
2019-01-12T16:35:20.308Z,1.90
2019-01-12T16:37:51.966Z,1.90
2019-01-12T16:40:25.006Z,1.90
2019-01-12T16:42:55.565Z,1.90
2019-01-12T16:45:26.320Z,1.90
2019-01-12T16:47:57.171Z,1.90
2019-01-12T16:50:27.849Z,1.90
2019-01-12T16:52:59.293Z,1.90
2019-01-12T16:55:29.757Z,1.90
2019-01-12T16:58:01.279Z,1.90
2019-01-12T17:00:32.372Z,1.90
2019-01-12T17:03:04.487Z,1.90
2019-01-12T17:05:35.311Z,1.90
2019-01-12T17:08:06.329Z,1.90
2019-01-12T17:10:36.742Z,1.90
2019-01-12T17:13:08.002Z,2.00
2019-01-12T17:15:39.184Z,2.00
2019-01-12T17:18:09.914Z,2.00
2019-01-12T17:20:40.613Z,2.10
2019-01-12T17:23:13.403Z,2.10
2019-01-12T17:25:44.767Z,2.10
2019-01-12T17:28:15.077Z,2.10
2019-01-12T17:30:45.822Z,2.00
2019-01-12T17:33:18.063Z,2.10
2019-01-12T17:35:48.730Z,2.00
2019-01-12T17:38:20.781Z,2.10
2019-01-12T17:40:52.373Z,2.10
2019-01-12T17:43:22.758Z,2.10
2019-01-12T17:45:53.066Z,2.10
2019-01-12T17:48:23.961Z,2.10
2019-01-12T17:50:54.665Z,2.10
2019-01-12T17:53:25.262Z,2.10
2019-01-12T17:55:58.243Z,2.10
2019-01-12T17:58:29.127Z,2.10
2019-01-12T18:01:00.147Z,2.10
2019-01-12T18:03:30.404Z,2.10
2019-01-12T18:06:00.805Z,2.10
2019-01-12T18:08:32.632Z,2.10
2019-01-12T18:11:03.769Z,2.20
2019-01-12T18:13:36.618Z,2.10
2019-01-12T18:16:07.011Z,2.20
2019-01-12T18:18:38.654Z,2.10
2019-01-12T18:21:09.088Z,2.20
2019-01-12T18:23:40.105Z,2.20
2019-01-12T18:26:11.911Z,2.10
2019-01-12T18:28:42.859Z,2.20
2019-01-12T18:31:14.002Z,2.20
2019-01-12T18:33:44.812Z,2.20
2019-01-12T18:36:15.231Z,2.20
2019-01-12T18:38:46.855Z,2.20
2019-01-12T18:41:17.429Z,2.20
2019-01-12T18:43:48.478Z,2.20
2019-01-12T18:46:18.826Z,2.20
2019-01-12T18:48:50.207Z,2.20
2019-01-12T18:51:20.992Z,2.20
2019-01-12T18:53:51.852Z,2.20
2019-01-12T18:56:23.254Z,2.20
2019-01-12T18:58:58.964Z,2.20
2019-01-12T19:01:26.335Z,2.10
2019-01-12T19:03:57.745Z,2.20
2019-01-12T19:06:29.165Z,2.20
2019-01-12T19:09:00.055Z,2.20
2019-01-12T19:11:30.715Z,2.20
2019-01-12T19:14:01.052Z,2.30
2019-01-12T19:16:31.958Z,2.30
2019-01-12T19:19:02.548Z,2.30
2019-01-12T19:21:33.391Z,2.20
2019-01-12T19:24:05.178Z,2.10
2019-01-12T19:26:36.034Z,2.10
2019-01-12T19:29:06.977Z,2.00
2019-01-12T19:31:37.689Z,2.00
2019-01-12T19:34:09.021Z,2.00
2019-01-12T19:36:42.314Z,2.00
2019-01-12T19:39:13.269Z,1.90
2019-01-12T19:41:47.390Z,1.90
2019-01-12T19:44:18.848Z,1.90
2019-01-12T19:46:49.955Z,1.90
2019-01-12T19:49:21.078Z,1.90
2019-01-12T19:51:52.254Z,1.90
2019-01-12T19:54:23.409Z,1.90
2019-01-12T19:56:54.038Z,1.80
2019-01-12T19:59:25.536Z,1.90
2019-01-12T20:01:56.382Z,1.80
2019-01-12T20:04:27.477Z,1.90
2019-01-12T20:06:58.260Z,1.80
2019-01-12T20:09:28.592Z,1.80
2019-01-12T20:11:59.077Z,1.80
2019-01-12T20:14:30.067Z,2.00
2019-01-12T20:17:02.428Z,2.00
2019-01-12T20:19:33.121Z,2.00
2019-01-12T20:22:03.782Z,2.00
2019-01-12T20:24:34.373Z,1.90
2019-01-12T20:27:04.829Z,1.90
2019-01-12T20:29:35.320Z,1.90
2019-01-12T20:32:21.425Z,1.90
2019-01-12T20:35:01.789Z,1.90
2019-01-12T20:38:02.676Z,1.90
2019-01-12T20:41:07.972Z,1.90
2019-01-12T20:44:09.967Z,2.00
2019-01-12T20:47:19.748Z,2.00
2019-01-12T20:50:28.284Z,2.00
2019-01-12T20:53:21.898Z,2.00
2019-01-12T20:56:12.681Z,2.00
2019-01-12T20:58:58.130Z,2.00
2019-01-12T21:02:02.875Z,2.10
2019-01-12T21:05:00.202Z,2.10
2019-01-12T21:08:07.340Z,2.10
2019-01-12T21:11:08.936Z,2.10
2019-01-12T21:14:10.506Z,2.20
2019-01-12T21:16:59.936Z,2.20
2019-01-12T21:19:30.348Z,2.20
2019-01-12T21:22:01.654Z,2.20
2019-01-12T21:24:32.252Z,2.20
2019-01-12T21:27:02.942Z,2.20
2019-01-12T21:29:35.285Z,2.30
2019-01-12T21:32:06.871Z,2.30
2019-01-12T21:34:37.566Z,2.30
2019-01-12T21:37:08.725Z,2.30
2019-01-12T21:39:39.431Z,2.30
2019-01-12T21:42:10.798Z,2.30
2019-01-12T21:44:42.625Z,2.30
2019-01-12T21:47:13.841Z,2.30
2019-01-12T21:49:44.474Z,2.40
2019-01-12T21:52:16.773Z,2.40
2019-01-12T21:54:49.260Z,2.40
2019-01-12T21:57:20.328Z,2.40
2019-01-12T22:00:01.961Z,2.50
2019-01-12T22:02:52.330Z,2.50
2019-01-12T22:05:43.981Z,2.50
2019-01-12T22:08:35.835Z,2.50
2019-01-12T22:11:11.720Z,2.50
2019-01-12T22:13:58.503Z,2.50
2019-01-12T22:16:46.527Z,2.50
2019-01-12T22:19:30.485Z,2.60
2019-01-12T22:22:07.569Z,2.60
2019-01-12T22:24:52.816Z,2.60
2019-01-12T22:27:30.446Z,2.60
2019-01-12T22:30:23.643Z,2.60
2019-01-12T22:33:19.430Z,2.60
2019-01-12T22:35:58.400Z,2.60
2019-01-12T22:38:31.639Z,2.60
2019-01-12T22:41:13.253Z,2.60
2019-01-12T22:44:21.299Z,2.60
2019-01-12T22:47:05.050Z,2.60
2019-01-12T22:49:52.243Z,2.60
2019-01-12T22:52:26.495Z,2.60
2019-01-12T22:55:13.640Z,2.70
2019-01-12T22:58:02.719Z,2.70
2019-01-12T23:00:52.811Z,2.70
2019-01-12T23:03:38.305Z,2.60
2019-01-12T23:06:26.005Z,2.70
2019-01-12T23:09:16.934Z,2.70
2019-01-12T23:11:50.535Z,2.70
2019-01-12T23:14:26.481Z,2.70
2019-01-12T23:17:06.531Z,2.70
2019-01-12T23:19:43.751Z,2.70
2019-01-12T23:22:21.386Z,2.70
2019-01-12T23:24:55.770Z,2.70
2019-01-12T23:27:26.895Z,2.70
2019-01-12T23:30:04.517Z,2.80
2019-01-12T23:32:37.201Z,2.80
2019-01-12T23:35:10.934Z,2.80
2019-01-12T23:37:47.872Z,2.80
2019-01-12T23:40:29.276Z,2.90
2019-01-12T23:43:02.575Z,2.90
2019-01-12T23:45:33.504Z,2.90
2019-01-12T23:48:07.575Z,2.90
2019-01-12T23:50:44.431Z,2.90
2019-01-12T23:53:16.305Z,2.90
2019-01-12T23:55:47.619Z,2.90
2019-01-12T23:58:25.184Z,2.90
